Time;durP1;ratioP1;P1;durP2;ratioP2;P2;SDS_P1;SDS_P2;PMS_P1;PMS_P2;Temp;Humidity;BMP_temperature;BMP_pressure;BME280_temperature;BME280_humidity;BME280_pressure;Samples;Min_cycle;Max_cycle;Signal;HPM_P1;HPM_P2
2023/07/15 00:01:36;;;;;;;5.47;2.60;;;20.70;99.90;;;;;;4999905;28;20023;-68
2023/07/15 00:04:02;;;;;;;8.80;3.30;;;20.70;99.90;;;;;;4999360;28;20088;-68
2023/07/15 00:06:28;;;;;;;7.53;2.90;;;20.80;99.90;;;;;;4999222;28;20053;-68
2023/07/15 00:08:55;;;;;;;4.50;2.60;;;20.80;99.90;;;;;;4999903;28;20117;-68
2023/07/15 00:11:29;;;;;;;5.28;2.72;;;20.80;99.90;;;;;;4999126;28;20031;-68
2023/07/15 00:13:59;;;;;;;5.20;2.72;;;20.80;99.90;;;;;;4999770;28;20037;-68
2023/07/15 00:16:26;;;;;;;5.53;3.08;;;20.70;99.90;;;;;;4999153;28;20033;-68
2023/07/15 00:18:52;;;;;;;6.70;2.70;;;20.60;99.90;;;;;;4998887;28;20038;-68
2023/07/15 00:21:23;;;;;;;5.05;2.70;;;20.50;99.90;;;;;;4999707;28;20019;-68
2023/07/15 00:23:57;;;;;;;4.10;2.42;;;20.50;99.90;;;;;;4999315;28;20061;-68
2023/07/15 00:26:25;;;;;;;9.25;3.00;;;20.40;99.90;;;;;;4998875;28;20117;-68
2023/07/15 00:28:50;;;;;;;4.70;2.70;;;20.30;99.90;;;;;;4999488;28;20132;-68
2023/07/15 00:31:17;;;;;;;10.40;2.70;;;20.30;99.90;;;;;;4999288;28;20027;-68
2023/07/15 00:33:44;;;;;;;5.93;2.58;;;20.30;99.90;;;;;;4998867;28;20031;-69
2023/07/15 00:36:11;;;;;;;10.95;2.75;;;20.30;99.90;;;;;;4999406;28;20030;-69
2023/07/15 00:38:36;;;;;;;8.30;3.65;;;20.40;99.90;;;;;;4999037;28;20034;-69
2023/07/15 00:41:03;;;;;;;6.40;2.58;;;20.40;99.90;;;;;;4998776;28;20018;-69
2023/07/15 00:43:58;;;;;;;7.82;2.67;;;20.40;99.90;;;;;;4999209;28;20023;-69
2023/07/15 00:46:43;;;;;;;5.32;2.72;;;20.50;99.90;;;;;;4999655;28;20113;-69
2023/07/15 00:49:14;;;;;;;6.50;2.72;;;20.50;99.90;;;;;;4999442;28;20031;-69
2023/07/15 00:51:47;;;;;;;4.80;2.85;;;20.50;99.90;;;;;;4998689;28;20026;-69
2023/07/15 00:54:13;;;;;;;7.97;2.65;;;20.50;99.90;;;;;;4998516;28;20041;-69
2023/07/15 00:56:41;;;;;;;8.50;3.20;;;20.50;99.90;;;;;;4999251;28;20030;-69
2023/07/15 00:59:09;;;;;;;5.40;2.60;;;20.40;99.90;;;;;;4998024;28;20033;-69
2023/07/15 01:01:36;;;;;;;8.82;2.60;;;20.30;99.90;;;;;;4998114;28;20022;-69
2023/07/15 01:04:02;;;;;;;3.58;2.65;;;20.30;99.90;;;;;;4998443;28;20030;-69
2023/07/15 01:06:28;;;;;;;6.50;2.72;;;20.30;99.90;;;;;;4998817;28;20026;-69
2023/07/15 01:08:54;;;;;;;5.07;2.65;;;20.30;99.90;;;;;;4997996;28;20065;-69
2023/07/15 01:11:19;;;;;;;5.78;2.72;;;20.40;99.90;;;;;;4997987;28;20168;-69
2023/07/15 01:13:45;;;;;;;3.47;2.47;;;20.50;99.90;;;;;;4997491;28;21894;-69
2023/07/15 01:16:11;;;;;;;5.57;2.40;;;20.60;99.90;;;;;;4998125;28;20023;-69
2023/07/15 01:18:36;;;;;;;4.70;2.38;;;20.60;99.90;;;;;;4997749;28;20037;-69
2023/07/15 01:21:03;;;;;;;7.75;2.45;;;20.50;99.90;;;;;;4998083;28;20028;-69
2023/07/15 01:23:29;;;;;;;4.43;3.00;;;20.50;99.90;;;;;;4998093;28;20097;-69
2023/07/15 01:25:56;;;;;;;7.65;2.70;;;20.50;99.90;;;;;;4997917;28;20029;-69
2023/07/15 01:28:22;;;;;;;7.95;2.45;;;20.50;99.90;;;;;;4997874;28;20026;-69
2023/07/15 01:30:48;;;;;;;7.43;3.08;;;20.50;99.90;;;;;;4998361;28;20018;-69
2023/07/15 01:33:16;;;;;;;4.40;2.72;;;20.40;99.90;;;;;;4997503;28;20021;-69
2023/07/15 01:35:48;;;;;;;6.43;2.83;;;20.20;99.90;;;;;;4997732;28;20033;-69
2023/07/15 01:38:17;;;;;;;5.35;2.90;;;20.20;99.90;;;;;;4997943;28;20033;-69
2023/07/15 01:40:43;;;;;;;8.07;2.88;;;20.20;99.90;;;;;;4997492;28;20100;-69
2023/07/15 01:43:09;;;;;;;4.80;2.47;;;20.20;99.90;;;;;;4997619;28;20035;-69
2023/07/15 01:45:36;;;;;;;9.88;2.83;;;20.10;99.90;;;;;;4997595;28;20038;-69
2023/07/15 01:48:02;;;;;;;8.07;3.15;;;20.10;99.90;;;;;;4997532;28;20026;-69
2023/07/15 01:50:27;;;;;;;5.88;2.50;;;20.20;99.90;;;;;;4997477;28;20038;-69
2023/07/15 01:52:53;;;;;;;5.90;3.00;;;20.20;99.90;;;;;;4997750;28;20034;-69
2023/07/15 01:55:18;;;;;;;3.85;2.50;;;20.10;99.90;;;;;;4997368;28;20195;-69
2023/07/15 01:57:44;;;;;;;4.20;2.55;;;20.00;99.90;;;;;;4997398;28;20023;-69
2023/07/15 02:00:10;;;;;;;5.85;2.45;;;20.00;99.90;;;;;;4997269;28;20037;-69
2023/07/15 02:02:36;;;;;;;5.20;2.58;;;19.80;99.90;;;;;;4997230;28;20030;-69
2023/07/15 02:05:02;;;;;;;4.28;2.50;;;19.80;99.90;;;;;;4997075;28;20038;-69
2023/07/15 02:07:27;;;;;;;6.57;2.88;;;19.80;99.90;;;;;;4997162;28;20030;-69
2023/07/15 02:09:53;;;;;;;3.90;2.30;;;19.80;99.90;;;;;;4997216;28;20117;-69
2023/07/15 02:12:18;;;;;;;7.63;3.05;;;19.80;99.90;;;;;;4997218;28;20162;-69
2023/07/15 02:14:44;;;;;;;4.05;2.70;;;19.80;99.90;;;;;;4996974;28;20027;-69
2023/07/15 02:17:09;;;;;;;2.95;2.20;;;19.80;99.90;;;;;;4996675;28;20023;-69
2023/07/15 02:19:35;;;;;;;6.72;3.00;;;19.80;99.90;;;;;;4997112;28;20049;-69
2023/07/15 02:22:00;;;;;;;7.68;2.60;;;19.80;99.90;;;;;;4997306;28;20031;-69
2023/07/15 02:24:26;;;;;;;6.55;3.03;;;19.80;99.90;;;;;;4996152;28;20045;-69
2023/07/15 02:26:52;;;;;;;3.15;2.20;;;19.80;99.90;;;;;;4997505;28;20023;-69
2023/07/15 02:29:18;;;;;;;3.70;2.50;;;19.70;99.90;;;;;;4997089;28;20081;-69
2023/07/15 02:31:43;;;;;;;5.38;2.40;;;19.80;99.90;;;;;;4996948;28;20026;-69
2023/07/15 02:34:09;;;;;;;2.85;2.00;;;19.90;99.90;;;;;;4997338;28;20027;-69
2023/07/15 02:36:35;;;;;;;8.77;2.30;;;19.90;99.90;;;;;;4996522;28;20023;-69
2023/07/15 02:39:02;;;;;;;6.45;2.08;;;19.90;99.90;;;;;;4996866;28;20026;-69
2023/07/15 02:41:28;;;;;;;2.75;1.75;;;19.90;99.90;;;;;;4997017;28;20034;-69
2023/07/15 02:43:54;;;;;;;5.53;2.72;;;19.90;99.90;;;;;;4997605;28;20026;-69
2023/07/15 02:46:19;;;;;;;7.40;2.80;;;19.90;99.90;;;;;;4996883;28;20061;-69
2023/07/15 02:48:45;;;;;;;6.05;2.83;;;19.90;99.90;;;;;;4996387;28;20034;-69
2023/07/15 02:51:10;;;;;;;6.15;1.95;;;19.80;99.90;;;;;;4997533;28;20034;-69
2023/07/15 02:53:36;;;;;;;7.15;2.40;;;19.80;99.90;;;;;;4996744;28;20018;-69
2023/07/15 02:56:01;;;;;;;3.60;2.05;;;19.80;99.90;;;;;;4996378;28;20026;-69
2023/07/15 02:58:27;;;;;;;3.97;2.45;;;19.70;99.90;;;;;;4996685;28;20150;-69
2023/07/15 03:00:53;;;;;;;6.47;2.30;;;19.60;99.90;;;;;;4996389;28;20025;-69
2023/07/15 03:03:20;;;;;;;4.90;2.85;;;19.60;99.90;;;;;;4996775;28;20029;-69
2023/07/15 03:05:47;;;;;;;3.55;2.33;;;19.60;99.90;;;;;;4996674;28;20030;-69
2023/07/15 03:08:12;;;;;;;3.80;2.20;;;19.50;99.90;;;;;;4996602;28;20029;-69
2023/07/15 03:10:38;;;;;;;3.20;2.10;;;19.50;99.90;;;;;;4996647;28;20030;-69
2023/07/15 03:13:04;;;;;;;3.97;2.67;;;19.50;99.90;;;;;;4996571;28;20045;-69
2023/07/15 03:15:30;;;;;;;8.88;2.10;;;19.40;99.90;;;;;;4996642;28;20045;-69
2023/07/15 03:17:56;;;;;;;5.20;2.22;;;19.30;99.90;;;;;;4996433;28;20041;-69
2023/07/15 03:20:22;;;;;;;3.90;2.10;;;19.40;99.90;;;;;;4997406;28;20022;-69
2023/07/15 03:22:48;;;;;;;5.53;2.28;;;19.30;99.90;;;;;;4996089;28;20026;-69
2023/07/15 03:25:14;;;;;;;7.18;1.88;;;19.30;99.90;;;;;;4996166;28;20034;-69
2023/07/15 03:27:40;;;;;;;4.75;1.90;;;19.30;99.90;;;;;;4996427;28;20029;-69
2023/07/15 03:30:09;;;;;;;4.93;1.95;;;19.40;99.90;;;;;;4996233;28;20033;-69
2023/07/15 03:32:39;;;;;;;4.13;2.15;;;19.30;99.90;;;;;;4996084;28;20077;-69
2023/07/15 03:35:08;;;;;;;3.50;2.00;;;19.30;99.90;;;;;;4996437;28;20034;-69
2023/07/15 03:37:35;;;;;;;4.30;2.25;;;19.40;99.90;;;;;;4999433;28;20019;-69
2023/07/15 03:40:02;;;;;;;5.53;2.22;;;19.40;99.90;;;;;;4999824;28;20049;-69
2023/07/15 03:42:27;;;;;;;7.13;2.08;;;19.50;99.90;;;;;;4999645;28;20027;-68
2023/07/15 03:44:53;;;;;;;2.75;1.77;;;19.50;99.90;;;;;;5000665;28;20035;-68
2023/07/15 03:47:19;;;;;;;4.38;2.30;;;19.50;99.90;;;;;;4999423;28;20030;-68
2023/07/15 03:49:45;;;;;;;4.18;2.22;;;19.50;99.90;;;;;;4999549;28;20015;-68
2023/07/15 03:52:11;;;;;;;3.40;2.10;;;19.50;99.90;;;;;;4999962;28;20022;-68
2023/07/15 03:54:37;;;;;;;5.85;1.83;;;19.50;99.90;;;;;;5000034;28;20077;-68
2023/07/15 03:57:02;;;;;;;5.03;2.20;;;19.30;99.90;;;;;;5000285;28;20019;-69
2023/07/15 03:59:28;;;;;;;3.15;2.60;;;19.30;99.90;;;;;;4999434;28;20109;-69
2023/07/15 04:01:54;;;;;;;4.60;2.00;;;19.20;99.90;;;;;;5000060;28;20058;-69
2023/07/15 04:04:20;;;;;;;8.65;2.13;;;19.20;99.90;;;;;;5000411;28;20026;-69
2023/07/15 04:06:46;;;;;;;5.28;2.05;;;19.20;99.90;;;;;;4999170;28;20030;-69
2023/07/15 04:09:12;;;;;;;6.38;2.35;;;19.30;99.90;;;;;;4999578;28;20053;-69
2023/07/15 04:11:39;;;;;;;11.63;3.03;;;19.30;99.90;;;;;;4999448;28;20105;-69
2023/07/15 04:14:05;;;;;;;4.75;1.95;;;19.30;99.90;;;;;;4999322;28;20113;-69
2023/07/15 04:16:31;;;;;;;2.13;1.67;;;19.30;99.90;;;;;;4999237;28;20019;-69
2023/07/15 04:18:56;;;;;;;3.20;2.33;;;19.40;99.90;;;;;;4997039;28;20101;-69
2023/07/15 04:21:22;;;;;;;2.60;1.73;;;19.40;99.90;;;;;;4997747;28;20018;-69
2023/07/15 04:23:48;;;;;;;5.28;1.95;;;19.50;99.90;;;;;;4997940;28;20046;-69
2023/07/15 04:26:19;;;;;;;4.13;2.15;;;19.50;99.90;;;;;;4999194;28;20060;-69
2023/07/15 04:28:44;;;;;;;6.35;1.90;;;19.60;99.90;;;;;;4999209;28;20036;-69
2023/07/15 04:31:10;;;;;;;2.72;1.92;;;19.70;99.90;;;;;;4999086;28;20031;-69
2023/07/15 04:33:36;;;;;;;5.72;2.10;;;19.70;99.90;;;;;;4998921;28;20064;-69
2023/07/15 04:36:02;;;;;;;4.05;1.90;;;19.60;99.90;;;;;;4998679;28;20019;-69
2023/07/15 04:38:28;;;;;;;2.95;2.03;;;19.60;99.90;;;;;;4999346;28;20027;-69
2023/07/15 04:40:54;;;;;;;4.03;1.98;;;19.60;99.90;;;;;;4998850;28;20053;-69
2023/07/15 04:43:22;;;;;;;2.55;1.90;;;19.60;99.90;;;;;;4998593;28;20027;-69
2023/07/15 04:45:48;;;;;;;5.47;2.45;;;19.60;99.90;;;;;;4998527;28;20038;-69
2023/07/15 04:48:14;;;;;;;3.85;2.53;;;19.70;99.90;;;;;;4997660;28;20169;-69
2023/07/15 04:50:40;;;;;;;5.63;2.50;;;19.80;99.90;;;;;;4998728;28;20061;-69
2023/07/15 04:53:06;;;;;;;7.80;2.30;;;19.80;99.90;;;;;;4998307;28;20032;-69
2023/07/15 04:55:31;;;;;;;4.75;1.88;;;19.90;99.90;;;;;;4998438;28;20026;-69
2023/07/15 04:57:57;;;;;;;5.00;1.80;;;20.00;99.90;;;;;;4998867;28;20018;-69
2023/07/15 05:00:22;;;;;;;2.97;1.85;;;20.00;99.90;;;;;;4998355;28;20113;-69
2023/07/15 05:02:49;;;;;;;4.35;1.85;;;20.10;99.90;;;;;;4998477;28;20022;-69
2023/07/15 05:05:15;;;;;;;6.15;2.10;;;20.20;99.90;;;;;;4998762;28;20053;-69
2023/07/15 05:07:40;;;;;;;7.50;2.28;;;20.30;99.90;;;;;;4998727;28;20030;-69
2023/07/15 05:10:06;;;;;;;5.25;2.17;;;20.20;99.90;;;;;;4998395;28;20030;-69
2023/07/15 05:12:32;;;;;;;4.07;2.15;;;20.20;99.90;;;;;;4998255;28;20054;-69
2023/07/15 05:14:58;;;;;;;4.03;1.73;;;20.20;99.90;;;;;;4997762;28;20037;-69
2023/07/15 05:17:25;;;;;;;2.55;1.88;;;20.40;99.90;;;;;;4998672;28;20029;-69
2023/07/15 05:19:50;;;;;;;4.22;1.98;;;20.50;99.90;;;;;;4998573;28;20049;-69
2023/07/15 05:22:17;;;;;;;4.03;2.58;;;20.60;99.90;;;;;;4998289;28;20022;-69
2023/07/15 05:24:44;;;;;;;4.70;2.28;;;20.70;99.90;;;;;;4998869;28;20096;-69
2023/07/15 05:27:10;;;;;;;5.53;2.20;;;20.70;99.90;;;;;;4997620;28;20033;-69
2023/07/15 05:29:36;;;;;;;8.88;2.22;;;20.70;99.90;;;;;;4997696;28;20018;-69
2023/07/15 05:32:01;;;;;;;2.88;2.30;;;20.70;99.90;;;;;;4998404;28;20022;-69
2023/07/15 05:34:27;;;;;;;3.72;2.20;;;20.80;99.90;;;;;;4997726;28;20130;-69
2023/07/15 05:36:53;;;;;;;4.57;2.13;;;20.90;99.90;;;;;;4998184;28;20023;-69
2023/07/15 05:39:19;;;;;;;4.45;2.38;;;20.90;99.90;;;;;;4997479;28;20019;-69
2023/07/15 05:41:45;;;;;;;7.75;2.22;;;21.10;99.90;;;;;;4998345;28;20076;-69
2023/07/15 05:44:10;;;;;;;3.67;2.40;;;21.10;99.90;;;;;;4997695;28;20034;-69
2023/07/15 05:46:37;;;;;;;2.88;2.10;;;21.10;99.90;;;;;;4997413;28;20097;-69
2023/07/15 05:49:06;;;;;;;3.47;2.30;;;21.30;99.90;;;;;;4997273;28;20026;-69
2023/07/15 05:51:32;;;;;;;7.18;2.55;;;21.40;99.90;;;;;;4997235;28;20026;-69
2023/07/15 05:53:58;;;;;;;5.32;2.42;;;21.40;99.90;;;;;;4998276;28;20037;-69
2023/07/15 05:56:23;;;;;;;6.28;2.78;;;21.40;99.90;;;;;;4997522;28;20030;-69
2023/07/15 05:58:50;;;;;;;3.88;2.65;;;21.50;99.90;;;;;;4997418;28;20030;-69
2023/07/15 06:01:16;;;;;;;2.60;2.40;;;21.50;99.90;;;;;;4995926;28;20121;-69
2023/07/15 06:03:41;;;;;;;7.75;3.25;;;21.70;99.90;;;;;;4995360;28;20054;-69
2023/07/15 06:06:07;;;;;;;4.60;2.88;;;21.80;99.90;;;;;;4995720;28;20023;-69
2023/07/15 06:08:33;;;;;;;5.10;2.17;;;21.90;99.90;;;;;;4996769;28;20025;-69
2023/07/15 06:10:58;;;;;;;5.53;2.80;;;22.00;99.90;;;;;;4996877;28;20110;-69
2023/07/15 06:13:24;;;;;;;2.17;1.98;;;22.10;99.90;;;;;;4997765;28;20061;-69
2023/07/15 06:15:51;;;;;;;5.75;2.75;;;22.10;99.90;;;;;;4996987;28;20081;-69
2023/07/15 06:18:17;;;;;;;5.97;2.20;;;22.20;99.90;;;;;;4996937;28;20092;-69
2023/07/15 06:20:43;;;;;;;10.50;2.10;;;22.30;99.90;;;;;;4997307;28;20022;-69
2023/07/15 06:23:09;;;;;;;6.82;2.38;;;22.40;99.90;;;;;;4997098;28;20025;-69
2023/07/15 06:25:37;;;;;;;5.00;2.50;;;22.50;99.90;;;;;;4996678;28;20072;-69
2023/07/15 06:28:03;;;;;;;5.07;2.15;;;22.70;99.90;;;;;;4996876;28;20030;-69
2023/07/15 06:30:28;;;;;;;4.00;2.47;;;22.80;99.90;;;;;;4997302;28;20027;-69
2023/07/15 06:32:54;;;;;;;6.32;2.47;;;22.90;99.90;;;;;;4997026;28;20018;-69
2023/07/15 06:35:20;;;;;;;5.93;2.38;;;23.00;99.90;;;;;;4996792;28;20030;-69
2023/07/15 06:37:49;;;;;;;5.32;2.42;;;23.00;99.90;;;;;;4996528;28;20108;-69
2023/07/15 06:40:16;;;;;;;3.97;2.50;;;23.10;99.90;;;;;;4997044;28;20029;-69
2023/07/15 06:42:45;;;;;;;6.07;2.60;;;23.20;99.90;;;;;;4997288;28;20057;-69
2023/07/15 06:45:12;;;;;;;3.33;2.35;;;23.30;99.90;;;;;;4996952;28;20037;-69
2023/07/15 06:47:38;;;;;;;3.28;2.45;;;23.30;99.90;;;;;;4996792;28;20029;-69
2023/07/15 06:50:04;;;;;;;3.45;2.42;;;23.40;99.90;;;;;;4996847;28;20030;-69
2023/07/15 06:52:30;;;;;;;6.75;2.50;;;23.50;99.90;;;;;;4996873;28;20030;-69
2023/07/15 06:54:56;;;;;;;13.18;2.95;;;23.60;99.90;;;;;;4996502;28;20029;-69
2023/07/15 06:57:21;;;;;;;4.57;3.10;;;23.70;99.90;;;;;;4996804;28;20049;-69
2023/07/15 06:59:47;;;;;;;5.20;2.45;;;23.90;99.90;;;;;;4997016;28;20022;-69
2023/07/15 07:02:13;;;;;;;5.47;2.58;;;24.00;99.90;;;;;;4996316;28;20019;-69
2023/07/15 07:04:39;;;;;;;4.25;2.47;;;24.20;99.90;;;;;;4996458;28;20118;-69
2023/07/15 07:07:05;;;;;;;7.43;2.55;;;24.40;99.90;;;;;;4996697;28;20076;-69
2023/07/15 07:09:30;;;;;;;9.18;2.97;;;24.30;99.90;;;;;;4996672;28;20118;-69
2023/07/15 07:11:56;;;;;;;6.43;2.60;;;24.30;99.90;;;;;;4999134;28;20033;-69
2023/07/15 07:14:22;;;;;;;4.63;2.38;;;24.30;99.90;;;;;;5000915;28;20053;-69
2023/07/15 07:16:47;;;;;;;15.45;2.53;;;24.30;99.90;;;;;;5000342;28;20113;-69
2023/07/15 07:19:13;;;;;;;3.38;2.30;;;24.40;99.90;;;;;;5000269;28;20030;-69
2023/07/15 07:21:39;;;;;;;7.63;2.72;;;24.40;99.90;;;;;;5000817;28;20026;-69
2023/07/15 07:24:05;;;;;;;4.28;2.63;;;24.50;99.90;;;;;;5000292;28;20026;-69
2023/07/15 07:26:30;;;;;;;9.40;2.70;;;24.60;99.90;;;;;;5000301;28;20030;-69
2023/07/15 07:28:56;;;;;;;5.40;2.53;;;24.70;99.90;;;;;;5000200;28;20033;-69
2023/07/15 07:31:22;;;;;;;7.80;2.83;;;24.90;99.90;;;;;;5000244;28;20114;-69
2023/07/15 07:33:47;;;;;;;5.05;2.50;;;25.10;99.90;;;;;;5000633;28;20030;-70
2023/07/15 07:36:13;;;;;;;4.70;2.38;;;25.30;99.90;;;;;;4999952;28;20029;-69
2023/07/15 07:38:38;;;;;;;4.90;2.30;;;25.40;99.90;;;;;;4999747;28;20049;-69
2023/07/15 07:41:05;;;;;;;11.10;3.42;;;25.30;99.90;;;;;;4999702;28;20019;-69
2023/07/15 07:43:32;;;;;;;4.07;2.55;;;25.40;99.90;;;;;;5000105;28;20022;-69
2023/07/15 07:45:59;;;;;;;7.45;2.58;;;25.30;99.90;;;;;;4999933;28;20034;-69
2023/07/15 07:48:25;;;;;;;8.98;3.22;;;25.20;99.90;;;;;;4999850;28;20118;-69
2023/07/15 07:50:50;;;;;;;3.90;2.60;;;25.50;99.90;;;;;;4999856;28;20038;-69
2023/07/15 07:53:16;;;;;;;5.20;2.58;;;25.50;99.90;;;;;;4999920;28;20027;-69
2023/07/15 07:55:41;;;;;;;5.20;2.65;;;25.40;99.90;;;;;;4999283;28;20026;-69
2023/07/15 07:58:07;;;;;;;4.55;2.65;;;25.50;99.90;;;;;;4999178;28;20026;-69
2023/07/15 08:00:32;;;;;;;4.28;2.33;;;25.50;99.90;;;;;;5000240;28;20073;-69
2023/07/15 08:02:58;;;;;;;5.38;2.75;;;25.50;99.90;;;;;;5001661;28;20026;-69
2023/07/15 08:05:24;;;;;;;6.32;2.90;;;25.40;99.90;;;;;;5000400;28;20121;-69
2023/07/15 08:07:50;;;;;;;5.72;3.03;;;25.30;99.90;;;;;;4999232;28;20022;-69
2023/07/15 08:10:15;;;;;;;5.72;2.50;;;25.30;99.90;;;;;;4999911;28;20062;-69
2023/07/15 08:12:41;;;;;;;7.07;2.70;;;25.20;99.90;;;;;;4999503;28;20066;-69
2023/07/15 08:15:07;;;;;;;5.70;2.70;;;25.20;99.90;;;;;;4999740;28;20027;-69
2023/07/15 08:17:33;;;;;;;4.70;2.50;;;25.30;99.90;;;;;;4999129;28;20026;-69
2023/07/15 08:19:59;;;;;;;9.40;2.75;;;25.50;99.90;;;;;;4999649;28;20033;-69
2023/07/15 08:22:24;;;;;;;8.85;2.50;;;25.50;99.90;;;;;;4999323;28;20015;-69
2023/07/15 08:24:50;;;;;;;10.65;2.97;;;25.50;99.90;;;;;;4999354;28;20030;-69
2023/07/15 08:27:15;;;;;;;9.90;2.95;;;25.40;99.90;;;;;;4999578;28;20030;-69
2023/07/15 08:29:41;;;;;;;17.33;3.42;;;25.40;99.90;;;;;;4998928;28;20090;-69
2023/07/15 08:32:07;;;;;;;11.88;2.70;;;25.30;99.90;;;;;;4998720;28;20030;-69
2023/07/15 08:34:32;;;;;;;8.80;2.45;;;25.20;99.90;;;;;;4998826;28;20022;-69
2023/07/15 08:36:58;;;;;;;8.75;2.75;;;25.20;99.90;;;;;;4998938;28;20026;-69
2023/07/15 08:39:24;;;;;;;5.22;2.80;;;25.30;99.90;;;;;;4999189;28;20033;-69
2023/07/15 08:41:53;;;;;;;7.50;3.53;;;25.20;99.90;;;;;;4999111;28;20049;-69
2023/07/15 08:44:19;;;;;;;4.55;2.38;;;25.10;99.90;;;;;;4999351;28;20030;-69
2023/07/15 08:46:45;;;;;;;5.88;2.75;;;25.10;99.90;;;;;;4999293;28;20053;-69
2023/07/15 08:49:11;;;;;;;4.75;2.42;;;25.10;99.90;;;;;;4998339;28;20036;-70
2023/07/15 08:51:38;;;;;;;3.90;2.20;;;25.10;99.90;;;;;;4999080;28;20034;-69
2023/07/15 08:54:07;;;;;;;3.97;2.60;;;25.00;99.90;;;;;;4998198;28;20034;-69
2023/07/15 08:56:37;;;;;;;7.72;2.80;;;25.00;99.90;;;;;;4998707;28;20033;-69
2023/07/15 08:59:06;;;;;;;6.22;2.95;;;25.00;99.90;;;;;;4998262;28;20092;-69
2023/07/15 09:01:35;;;;;;;4.25;2.67;;;25.00;99.90;;;;;;4998368;28;20025;-69
2023/07/15 09:04:01;;;;;;;5.55;2.80;;;25.00;99.90;;;;;;4998199;28;20026;-69
2023/07/15 09:06:28;;;;;;;4.47;2.92;;;24.90;99.90;;;;;;4998478;28;20069;-69
2023/07/15 09:08:54;;;;;;;6.90;2.70;;;24.90;99.90;;;;;;4998527;28;20022;-69
2023/07/15 09:11:20;;;;;;;8.35;3.22;;;24.90;99.90;;;;;;4998109;28;20022;-69
2023/07/15 09:13:46;;;;;;;11.40;3.33;;;24.90;99.90;;;;;;4998057;28;20023;-69
2023/07/15 09:16:12;;;;;;;5.55;2.97;;;25.00;99.90;;;;;;4998002;28;20026;-69
2023/07/15 09:18:42;;;;;;;8.18;3.38;;;25.10;99.90;;;;;;4997608;28;20033;-69
2023/07/15 09:21:15;;;;;;;6.60;3.20;;;25.00;99.90;;;;;;4998153;28;20022;-69
2023/07/15 09:23:44;;;;;;;5.20;2.70;;;24.90;99.90;;;;;;4998688;28;20026;-69
2023/07/15 09:26:11;;;;;;;9.10;3.15;;;25.00;99.90;;;;;;4998592;28;20026;-69
2023/07/15 09:28:38;;;;;;;4.55;2.83;;;24.80;99.90;;;;;;4997643;28;20038;-69
2023/07/15 09:31:04;;;;;;;4.90;2.78;;;24.50;99.90;;;;;;4998047;28;20030;-69
2023/07/15 09:33:32;;;;;;;4.60;2.90;;;24.40;99.90;;;;;;4997589;28;20027;-69
2023/07/15 09:35:59;;;;;;;9.20;3.00;;;24.30;99.90;;;;;;4997447;28;20030;-69
2023/07/15 09:38:47;;;;;;;7.13;2.95;;;24.20;99.90;;;;;;4997928;28;20023;-69
2023/07/15 09:41:19;;;;;;;3.33;2.95;;;24.20;99.90;;;;;;4997493;28;20027;-69
2023/07/15 09:43:48;;;;;;;4.50;2.78;;;24.20;99.90;;;;;;4997522;28;20023;-69
2023/07/15 09:46:16;;;;;;;5.13;2.85;;;24.10;99.90;;;;;;4997596;28;20117;-69
2023/07/15 09:48:43;;;;;;;7.75;3.42;;;24.10;99.90;;;;;;4997653;28;20026;-69
2023/07/15 09:51:12;;;;;;;2.88;2.42;;;24.10;99.90;;;;;;4998102;28;20176;-69
2023/07/15 09:53:43;;;;;;;4.15;2.80;;;24.20;99.90;;;;;;4997977;28;20044;-69
2023/07/15 09:56:09;;;;;;;4.75;2.67;;;24.30;99.90;;;;;;4998030;28;20104;-69
2023/07/15 09:58:38;;;;;;;6.55;2.88;;;24.40;99.90;;;;;;4997492;28;20134;-69
2023/07/15 10:01:14;;;;;;;4.50;2.92;;;24.40;99.90;;;;;;4997925;28;20022;-69
2023/07/15 10:03:54;;;;;;;7.57;3.05;;;24.50;99.90;;;;;;4997967;28;20022;-69
2023/07/15 10:06:21;;;;;;;4.65;2.58;;;24.60;99.90;;;;;;4997569;28;20022;-69
2023/07/15 10:08:47;;;;;;;2.60;2.40;;;24.80;99.90;;;;;;4997049;28;20030;-69
2023/07/15 10:11:13;;;;;;;6.30;3.38;;;24.90;99.90;;;;;;4997048;28;20033;-69
2023/07/15 10:13:39;;;;;;;5.50;3.30;;;25.20;99.90;;;;;;4997726;28;20022;-69
2023/07/15 10:16:05;;;;;;;7.03;2.88;;;25.10;99.90;;;;;;4997030;28;20030;-69
2023/07/15 10:18:31;;;;;;;6.63;3.08;;;25.20;99.90;;;;;;5020594;23;20041;-66
2023/07/15 10:21:00;;;;;;;3.75;3.03;;;25.00;99.90;;;;;;4996907;28;20026;-66
2023/07/15 10:23:27;;;;;;;5.50;3.80;;;24.90;99.90;;;;;;4997435;28;20027;-66
2023/07/15 10:26:04;;;;;;;5.43;3.30;;;24.90;99.90;;;;;;4997617;28;20030;-66
2023/07/15 10:28:52;;;;;;;4.63;3.28;;;24.80;99.90;;;;;;4997493;28;20026;-67
2023/07/15 10:31:23;;;;;;;5.75;3.63;;;24.80;99.90;;;;;;4996684;28;20026;-66
2023/07/15 10:33:54;;;;;;;7.45;3.30;;;24.80;99.90;;;;;;4997836;28;20113;-67
2023/07/15 10:36:36;;;;;;;7.70;4.15;;;24.90;99.90;;;;;;4997935;28;20102;-67
2023/07/15 10:39:16;;;;;;;4.45;3.58;;;25.00;99.90;;;;;;4996511;28;20121;-66
2023/07/15 10:42:06;;;;;;;4.03;3.03;;;25.00;99.90;;;;;;4996588;28;20037;-66
2023/07/15 10:44:38;;;;;;;4.40;2.50;;;24.90;99.90;;;;;;4986230;28;20046;-66
2023/07/15 10:47:04;;;;;;;5.63;3.13;;;24.70;99.90;;;;;;5000465;28;20034;-66
2023/07/15 10:49:31;;;;;;;5.15;2.80;;;24.60;99.90;;;;;;5001544;28;20029;-66
2023/07/15 10:51:57;;;;;;;9.65;2.78;;;24.40;99.90;;;;;;5000920;28;20038;-66
2023/07/15 10:54:27;;;;;;;4.10;2.53;;;24.20;99.90;;;;;;5001237;28;20022;-66
2023/07/15 10:56:53;;;;;;;4.88;2.67;;;24.20;99.90;;;;;;5000416;28;20023;-66
2023/07/15 10:59:20;;;;;;;5.07;2.40;;;24.20;99.90;;;;;;5000280;28;20057;-66
2023/07/15 11:01:46;;;;;;;8.60;2.72;;;24.30;99.90;;;;;;4998251;28;20027;-66
2023/07/15 11:04:11;;;;;;;5.95;2.50;;;24.30;99.90;;;;;;4998590;28;20041;-66
2023/07/15 11:06:38;;;;;;;4.07;2.75;;;24.50;99.90;;;;;;4999764;28;20057;-67
2023/07/15 11:09:21;;;;;;;5.70;3.63;;;24.70;99.90;;;;;;5001149;28;20026;-67
2023/07/15 11:11:48;;;;;;;11.20;5.43;;;24.90;99.90;;;;;;5001109;28;20030;-66
2023/07/15 11:14:23;;;;;;;5.38;4.10;;;25.20;99.90;;;;;;5001361;28;20026;-66
2023/07/15 11:16:53;;;;;;;7.15;3.60;;;25.20;99.90;;;;;;5000924;28;20080;-66
2023/07/15 11:19:20;;;;;;;7.80;3.80;;;25.40;99.90;;;;;;5000685;28;20052;-66
2023/07/15 11:21:45;;;;;;;5.25;2.70;;;25.50;99.90;;;;;;4999902;28;20037;-66
2023/07/15 11:24:12;;;;;;;6.80;3.05;;;25.60;99.90;;;;;;5000030;28;20018;-66
2023/07/15 11:26:38;;;;;;;8.20;3.00;;;25.60;99.90;;;;;;5001304;28;20082;-67
2023/07/15 11:29:19;;;;;;;3.58;2.40;;;25.50;99.90;;;;;;5000020;28;20098;-66
2023/07/15 11:31:50;;;;;;;5.78;3.00;;;25.20;99.90;;;;;;5000532;28;20026;-66
2023/07/15 11:34:17;;;;;;;5.97;3.05;;;25.10;99.90;;;;;;5000718;28;20026;-66
2023/07/15 11:36:43;;;;;;;7.40;2.83;;;25.10;99.90;;;;;;5000756;28;20026;-67
2023/07/15 11:39:10;;;;;;;12.35;2.63;;;25.10;99.90;;;;;;5000557;28;20029;-66
2023/07/15 11:41:37;;;;;;;3.90;2.38;;;24.90;99.90;;;;;;5000450;28;20027;-66
2023/07/15 11:44:16;;;;;;;4.10;3.08;;;24.90;99.90;;;;;;5000487;28;20105;-66
2023/07/15 11:46:44;;;;;;;3.90;2.53;;;24.80;99.90;;;;;;4999572;28;20030;-67
2023/07/15 11:49:10;;;;;;;6.70;3.17;;;24.90;99.90;;;;;;4999696;28;20027;-66
2023/07/15 11:51:40;;;;;;;4.50;3.08;;;25.00;99.90;;;;;;4999784;28;20029;-66
2023/07/15 11:54:12;;;;;;;5.20;2.78;;;24.90;99.90;;;;;;4999358;28;20033;-66
2023/07/15 11:56:39;;;;;;;7.78;2.75;;;24.90;99.90;;;;;;4999357;28;20053;-66
2023/07/15 11:59:07;;;;;;;5.55;3.28;;;24.90;99.90;;;;;;5000029;28;20022;-66
2023/07/15 12:01:33;;;;;;;6.05;2.72;;;25.00;99.90;;;;;;5000268;28;20060;-66
2023/07/15 12:03:59;;;;;;;3.58;2.85;;;25.00;99.90;;;;;;4999285;28;20026;-66
2023/07/15 12:06:27;;;;;;;5.30;2.80;;;25.10;99.90;;;;;;4999230;28;20022;-67
2023/07/15 12:09:11;;;;;;;5.53;2.70;;;25.10;99.90;;;;;;4998983;28;20032;-66
2023/07/15 12:11:38;;;;;;;8.40;2.90;;;25.10;99.90;;;;;;4999834;28;20113;-67
2023/07/15 12:14:05;;;;;;;4.05;2.92;;;25.20;99.90;;;;;;4999283;28;20023;-66
2023/07/15 12:16:32;;;;;;;3.55;2.92;;;25.30;99.90;;;;;;4999026;28;20029;-66
2023/07/15 12:18:59;;;;;;;4.05;3.17;;;25.30;99.90;;;;;;4999822;28;20054;-67
2023/07/15 12:21:25;;;;;;;5.38;3.10;;;25.30;99.90;;;;;;4999866;28;20019;-66
2023/07/15 12:23:51;;;;;;;5.28;3.25;;;25.40;99.90;;;;;;4999310;28;20117;-66
2023/07/15 12:26:18;;;;;;;11.80;2.90;;;25.40;99.90;;;;;;4998801;28;20113;-66
2023/07/15 12:28:43;;;;;;;3.90;3.10;;;25.60;99.90;;;;;;4999756;28;20026;-66
2023/07/15 12:31:09;;;;;;;7.63;2.83;;;25.80;99.90;;;;;;4998158;28;20060;-66
2023/07/15 12:33:35;;;;;;;3.60;2.80;;;26.00;99.90;;;;;;4998256;28;20031;-67
2023/07/15 12:36:04;;;;;;;4.05;2.45;;;26.50;99.90;;;;;;4997950;28;20041;-66
2023/07/15 12:38:30;;;;;;;4.15;2.95;;;26.80;99.90;;;;;;4998346;28;20025;-67
2023/07/15 12:40:56;;;;;;;4.95;3.20;;;27.20;99.90;;;;;;4998718;28;20019;-67
2023/07/15 12:43:23;;;;;;;10.73;3.10;;;27.50;99.90;;;;;;4998788;28;20153;-67
2023/07/15 12:45:52;;;;;;;13.30;3.88;;;27.90;99.90;;;;;;4999425;28;20053;-67